createdAt,value
2022-08-30T00:02:25.395Z,72.00
2022-08-30T00:04:54.100Z,72.10
2022-08-30T00:07:22.122Z,72.50
2022-08-30T00:09:49.945Z,72.90
2022-08-30T00:12:17.996Z,72.70
2022-08-30T00:14:45.788Z,72.90
2022-08-30T00:17:13.706Z,72.70
2022-08-30T00:19:43.495Z,72.50
2022-08-30T00:22:12.315Z,72.40
2022-08-30T00:24:40.104Z,72.30
2022-08-30T00:27:07.887Z,72.30
2022-08-30T00:29:35.676Z,71.90
2022-08-30T00:32:03.985Z,72.20
2022-08-30T00:34:32.231Z,72.30
2022-08-30T00:37:02.187Z,72.30
2022-08-30T00:39:29.967Z,72.00
2022-08-30T00:41:57.852Z,72.50
2022-08-30T00:44:25.788Z,72.20
2022-08-30T00:46:53.584Z,72.10
2022-08-30T00:49:21.503Z,72.50
2022-08-30T00:51:49.631Z,72.60
2022-08-30T00:54:19.992Z,72.60
2022-08-30T00:56:49.090Z,72.40
2022-08-30T00:59:17.625Z,74.10
2022-08-30T01:01:45.667Z,74.10
2022-08-30T01:04:15.047Z,74.40
2022-08-30T01:06:42.926Z,73.40
2022-08-30T01:09:10.783Z,73.70
2022-08-30T01:11:41.991Z,73.30
2022-08-30T01:14:12.553Z,74.00
2022-08-30T01:16:42.852Z,73.80
2022-08-30T01:19:19.052Z,73.00
2022-08-30T01:21:50.678Z,73.00
2022-08-30T01:24:20.407Z,73.10
2022-08-30T01:26:48.224Z,73.10
2022-08-30T01:29:22.153Z,73.60
2022-08-30T01:31:50.225Z,73.30
2022-08-30T01:34:18.102Z,73.40
2022-08-30T01:36:47.227Z,73.40
2022-08-30T01:39:17.244Z,73.40
2022-08-30T01:41:46.684Z,73.50
2022-08-30T01:44:15.254Z,75.20
2022-08-30T01:46:46.347Z,72.90
2022-08-30T01:49:26.954Z,73.60
2022-08-30T01:52:00.619Z,74.00
2022-08-30T01:54:33.711Z,74.40
2022-08-30T01:57:09.110Z,74.10
2022-08-30T01:59:38.013Z,74.90
2022-08-30T02:02:07.007Z,74.70
2022-08-30T02:04:36.621Z,74.10
2022-08-30T02:07:05.322Z,74.00
2022-08-30T02:09:33.372Z,74.10
2022-08-30T02:12:01.262Z,74.10
2022-08-30T02:14:30.476Z,74.00
2022-08-30T02:16:58.368Z,74.10
2022-08-30T02:19:26.444Z,73.90
2022-08-30T02:21:54.302Z,73.90
2022-08-30T02:24:22.243Z,73.90
2022-08-30T02:26:52.573Z,74.10
2022-08-30T02:29:21.042Z,74.20
2022-08-30T02:31:50.637Z,74.30
2022-08-30T02:34:19.855Z,74.30
2022-08-30T02:36:47.910Z,74.30
2022-08-30T02:39:16.687Z,74.60
2022-08-30T02:41:44.630Z,74.50
2022-08-30T02:44:13.009Z,75.70
2022-08-30T02:46:40.968Z,75.80
2022-08-30T02:49:32.634Z,76.30
2022-08-30T02:51:58.443Z,76.60
2022-08-30T02:54:26.465Z,76.90
2022-08-30T02:56:54.277Z,76.40
2022-08-30T02:59:22.157Z,76.10
2022-08-30T03:01:50.110Z,75.90
2022-08-30T03:04:23.330Z,75.80
2022-08-30T03:06:54.729Z,75.80
2022-08-30T03:09:22.689Z,75.30
2022-08-30T03:11:50.544Z,75.30
2022-08-30T03:14:18.539Z,75.40
2022-08-30T03:16:46.613Z,75.50
2022-08-30T03:19:14.612Z,75.30
2022-08-30T03:21:43.825Z,75.60
2022-08-30T03:24:13.553Z,75.50
2022-08-30T03:26:46.079Z,75.50
2022-08-30T03:29:14.539Z,75.90
2022-08-30T03:31:53.159Z,75.70
2022-08-30T03:34:22.118Z,75.70
2022-08-30T03:36:52.679Z,76.30
2022-08-30T03:39:21.322Z,75.80
2022-08-30T03:41:49.293Z,76.30
2022-08-30T03:44:17.255Z,76.00
2022-08-30T03:46:45.145Z,76.30
2022-08-30T03:49:12.987Z,76.50
2022-08-30T03:51:40.888Z,76.60
2022-08-30T03:54:10.528Z,76.60
2022-08-30T03:56:38.394Z,77.00
2022-08-30T03:59:07.010Z,76.50
2022-08-30T04:01:35.054Z,76.60
2022-08-30T04:04:03.560Z,76.80
2022-08-30T04:06:31.491Z,76.70
2022-08-30T04:08:59.256Z,76.90
2022-08-30T04:11:28.391Z,76.80
2022-08-30T04:13:56.789Z,76.90
2022-08-30T04:16:26.372Z,77.30
2022-08-30T04:18:54.452Z,77.00
2022-08-30T04:21:24.036Z,77.20
2022-08-30T04:26:20.277Z,77.00
2022-08-30T04:28:49.687Z,77.00
2022-08-30T04:31:18.898Z,77.30
2022-08-30T04:33:46.735Z,77.10
2022-08-30T04:36:14.674Z,77.20
2022-08-30T04:38:43.871Z,77.40
2022-08-30T04:41:13.952Z,77.20
2022-08-30T04:43:41.839Z,77.10
2022-08-30T04:46:11.149Z,77.10
2022-08-30T04:48:39.303Z,77.50
2022-08-30T04:51:09.180Z,77.90
2022-08-30T04:53:37.247Z,77.70
2022-08-30T04:56:08.895Z,77.70
2022-08-30T04:58:36.801Z,77.60
2022-08-30T05:01:05.703Z,77.40
2022-08-30T05:03:39.184Z,77.90
2022-08-30T05:06:07.465Z,77.40
2022-08-30T05:08:35.427Z,77.50
2022-08-30T05:11:06.072Z,77.50
2022-08-30T05:13:35.498Z,77.40
2022-08-30T05:16:07.800Z,77.60
2022-08-30T05:18:36.547Z,77.50
2022-08-30T05:21:08.757Z,77.90
2022-08-30T05:23:36.968Z,78.20
2022-08-30T05:26:08.245Z,78.00
2022-08-30T05:28:36.476Z,78.30
2022-08-30T05:31:13.907Z,78.20
2022-08-30T05:33:42.483Z,78.30
2022-08-30T05:36:13.088Z,78.10
2022-08-30T05:38:41.334Z,78.40
2022-08-30T05:41:10.676Z,78.90
2022-08-30T05:43:39.262Z,78.30
2022-08-30T05:46:10.289Z,78.40
2022-08-30T05:48:39.056Z,78.60
2022-08-30T05:51:09.287Z,78.30
2022-08-30T05:53:39.060Z,78.80
2022-08-30T05:56:09.529Z,79.40
2022-08-30T05:58:38.169Z,79.60
2022-08-30T06:01:06.366Z,79.40
2022-08-30T06:03:34.521Z,79.30
2022-08-30T06:06:03.560Z,79.30
2022-08-30T06:08:31.344Z,79.00
2022-08-30T06:11:00.457Z,79.00
2022-08-30T06:13:28.255Z,79.20
2022-08-30T06:15:56.161Z,79.20
2022-08-30T06:18:28.741Z,79.10
2022-08-30T06:20:57.087Z,79.40
2022-08-30T06:23:25.576Z,79.40
2022-08-30T06:25:53.362Z,79.50
2022-08-30T06:28:22.811Z,79.50
2022-08-30T06:30:51.517Z,79.60
2022-08-30T06:33:19.377Z,79.60
2022-08-30T06:35:58.800Z,79.60
2022-08-30T06:38:27.765Z,79.70
2022-08-30T06:40:55.706Z,79.80
2022-08-30T06:43:25.045Z,79.70
2022-08-30T06:45:52.811Z,80.00
2022-08-30T06:48:20.597Z,79.80
2022-08-30T06:50:54.704Z,80.00
2022-08-30T06:53:23.077Z,80.30
2022-08-30T06:55:57.776Z,79.70
2022-08-30T06:58:27.552Z,80.90
2022-08-30T07:00:55.429Z,80.50
2022-08-30T07:03:23.535Z,80.00
2022-08-30T07:05:52.054Z,79.50
2022-08-30T07:08:20.003Z,79.30
2022-08-30T07:10:48.597Z,79.00
2022-08-30T07:13:17.106Z,79.00
2022-08-30T07:15:46.714Z,78.80
2022-08-30T07:18:33.395Z,78.70
2022-08-30T07:21:08.459Z,78.50
2022-08-30T07:23:36.578Z,77.90
2022-08-30T07:26:06.132Z,78.40
2022-08-30T07:28:34.907Z,78.90
2022-08-30T07:31:04.178Z,77.20
2022-08-30T07:33:32.376Z,76.50
2022-08-30T07:36:00.790Z,76.30
2022-08-30T07:38:30.366Z,75.80
2022-08-30T07:40:59.112Z,75.10
2022-08-30T07:43:27.413Z,74.50
2022-08-30T07:45:55.885Z,75.30
2022-08-30T07:48:25.274Z,73.60
2022-08-30T07:50:57.564Z,73.40
2022-08-30T07:53:27.056Z,74.20
2022-08-30T07:55:55.190Z,72.70
2022-08-30T07:58:23.732Z,72.00
2022-08-30T08:00:51.834Z,71.10
2022-08-30T08:03:19.664Z,72.50
2022-08-30T08:05:49.299Z,70.70
2022-08-30T08:08:17.320Z,69.60
2022-08-30T08:10:45.277Z,68.70
2022-08-30T08:13:13.112Z,68.00
2022-08-30T08:15:41.010Z,67.20
2022-08-30T08:18:08.971Z,66.40
2022-08-30T08:20:36.895Z,65.90
2022-08-30T08:23:06.164Z,65.90
2022-08-30T08:25:35.378Z,66.10
2022-08-30T08:28:03.445Z,65.90
2022-08-30T08:30:35.279Z,65.50
2022-08-30T08:33:03.747Z,64.70
2022-08-30T08:35:31.725Z,64.40
2022-08-30T08:37:59.640Z,64.70
2022-08-30T08:40:29.349Z,65.40
2022-08-30T08:43:02.926Z,63.10
2022-08-30T08:45:40.974Z,63.00
2022-08-30T08:48:12.882Z,63.50
2022-08-30T08:51:02.805Z,62.70
2022-08-30T08:53:52.786Z,63.20
2022-08-30T08:56:23.297Z,61.80
2022-08-30T08:58:52.758Z,61.20
2022-08-30T09:01:22.980Z,61.30
2022-08-30T09:03:52.007Z,60.90
2022-08-30T09:06:45.358Z,61.20
2022-08-30T09:09:14.066Z,59.40
2022-08-30T09:11:44.306Z,60.30
2022-08-30T09:14:17.698Z,59.20
2022-08-30T09:16:57.908Z,59.30
2022-08-30T09:19:38.180Z,58.60
2022-08-30T09:22:16.304Z,58.30
2022-08-30T09:24:47.283Z,58.30
2022-08-30T09:27:23.884Z,58.50
2022-08-30T09:29:54.507Z,57.70
2022-08-30T09:32:32.036Z,58.40
2022-08-30T09:35:00.604Z,57.20
2022-08-30T09:37:39.183Z,57.60
2022-08-30T09:40:23.082Z,57.00
2022-08-30T09:46:16.209Z,57.00
2022-08-30T09:48:46.107Z,56.60
2022-08-30T09:51:41.611Z,57.40
2022-08-30T09:54:19.852Z,57.00
2022-08-30T09:57:00.969Z,57.00
2022-08-30T09:59:42.059Z,55.90
2022-08-30T10:02:30.308Z,57.00
2022-08-30T10:05:06.558Z,55.50
2022-08-30T10:07:42.074Z,55.10
2022-08-30T10:10:14.321Z,54.80
2022-08-30T10:13:04.441Z,54.60
2022-08-30T10:15:35.267Z,53.90
2022-08-30T10:18:11.367Z,53.80
2022-08-30T10:20:57.185Z,55.00
2022-08-30T10:23:30.030Z,52.30
2022-08-30T10:26:12.507Z,52.90
2022-08-30T10:28:47.444Z,52.80
2022-08-30T10:31:27.075Z,53.00
2022-08-30T10:34:01.843Z,52.30
2022-08-30T10:36:35.961Z,52.10
2022-08-30T10:39:04.502Z,52.90
2022-08-30T10:41:38.660Z,51.80
2022-08-30T10:44:17.733Z,51.20
2022-08-30T10:46:58.692Z,51.70
2022-08-30T10:49:31.570Z,51.40
2022-08-30T10:52:07.537Z,51.60
2022-08-30T10:54:41.792Z,51.60
2022-08-30T10:57:10.592Z,52.30
2022-08-30T10:59:46.345Z,51.40
2022-08-30T11:02:36.861Z,50.40
2022-08-30T11:05:40.714Z,50.00
2022-08-30T11:08:22.902Z,49.80
2022-08-30T11:10:59.596Z,50.20
2022-08-30T11:13:30.050Z,50.10
2022-08-30T11:16:04.280Z,50.20
2022-08-30T11:18:34.437Z,48.70
2022-08-30T11:21:25.102Z,49.10
2022-08-30T11:24:01.388Z,49.30
2022-08-30T11:27:07.774Z,49.20
2022-08-30T11:29:43.614Z,48.40
2022-08-30T11:32:48.315Z,48.50
2022-08-30T11:35:39.797Z,48.10
2022-08-30T11:38:21.447Z,48.00
2022-08-30T11:40:53.353Z,48.50
2022-08-30T11:43:56.032Z,48.40
2022-08-30T11:46:39.781Z,48.00
2022-08-30T11:49:46.104Z,47.00
2022-08-30T11:52:28.502Z,47.40
2022-08-30T11:55:22.399Z,48.20
2022-08-30T11:57:55.442Z,47.90
2022-08-30T12:00:34.988Z,48.20
2022-08-30T12:03:05.933Z,47.80
2022-08-30T12:06:04.137Z,48.40
2022-08-30T12:08:55.201Z,46.80
2022-08-30T12:12:01.374Z,48.40
2022-08-30T12:14:49.330Z,46.80
2022-08-30T12:17:45.798Z,46.30
2022-08-30T12:20:40.543Z,46.80
2022-08-30T12:23:28.124Z,47.60
2022-08-30T12:26:14.772Z,46.50
2022-08-30T12:28:45.677Z,46.80
2022-08-30T12:31:17.493Z,45.80
2022-08-30T12:33:50.777Z,46.60
2022-08-30T12:36:34.994Z,45.50
2022-08-30T12:39:08.324Z,45.30
2022-08-30T12:41:43.283Z,46.80
2022-08-30T12:44:15.633Z,45.40
2022-08-30T12:46:46.786Z,45.10
2022-08-30T12:49:15.951Z,45.50
2022-08-30T12:51:45.083Z,44.40
2022-08-30T12:54:19.349Z,44.50
2022-08-30T12:57:09.978Z,46.50
2022-08-30T12:59:58.449Z,44.60
2022-08-30T13:02:44.008Z,43.20
2022-08-30T13:05:37.381Z,45.80
2022-08-30T13:08:16.719Z,44.00
2022-08-30T13:10:55.579Z,44.50
2022-08-30T13:13:37.371Z,43.60
2022-08-30T13:16:12.136Z,43.90
2022-08-30T13:18:40.948Z,43.80
2022-08-30T13:21:21.172Z,44.40
2022-08-30T13:23:49.143Z,44.00
2022-08-30T13:26:22.982Z,43.90
2022-08-30T13:28:56.974Z,44.10
2022-08-30T13:31:25.492Z,43.50
2022-08-30T13:33:53.866Z,43.90
2022-08-30T13:36:24.709Z,44.20
2022-08-30T13:38:53.075Z,44.40
2022-08-30T13:41:21.740Z,44.30
2022-08-30T13:46:42.806Z,43.60
2022-08-30T13:52:23.258Z,44.50
2022-08-30T13:54:51.391Z,43.90
2022-08-30T14:00:17.214Z,44.60
2022-08-30T14:02:54.738Z,44.10
2022-08-30T14:05:47.457Z,44.20
2022-08-30T14:11:02.970Z,44.30
2022-08-30T14:13:30.831Z,44.20
2022-08-30T14:18:51.662Z,43.40
2022-08-30T14:21:21.495Z,43.40
2022-08-30T14:23:52.830Z,46.10
2022-08-30T14:26:23.523Z,43.30
2022-08-30T14:28:52.223Z,43.60
2022-08-30T14:31:20.613Z,43.50
2022-08-30T14:33:48.841Z,43.30
2022-08-30T14:36:18.796Z,42.70
2022-08-30T14:38:47.084Z,42.10
2022-08-30T14:41:16.672Z,42.10
2022-08-30T14:43:44.617Z,42.50
2022-08-30T14:46:12.668Z,42.10
2022-08-30T14:48:41.610Z,43.30
2022-08-30T14:51:16.632Z,42.00
2022-08-30T14:53:47.473Z,41.90
2022-08-30T14:56:17.079Z,41.90
2022-08-30T14:58:49.365Z,42.00
2022-08-30T15:01:18.422Z,42.10
2022-08-30T15:03:49.196Z,42.30
2022-08-30T15:06:19.468Z,42.10
2022-08-30T15:08:49.760Z,40.60
2022-08-30T15:11:20.456Z,41.60
2022-08-30T15:13:49.069Z,42.00
2022-08-30T15:16:22.852Z,42.20
2022-08-30T15:18:51.874Z,42.50
2022-08-30T15:21:25.725Z,41.80
2022-08-30T15:23:55.371Z,41.60
2022-08-30T15:26:23.880Z,41.30
2022-08-30T15:28:52.267Z,41.60
2022-08-30T15:31:21.345Z,41.40
2022-08-30T15:33:50.839Z,41.70
2022-08-30T15:36:18.958Z,42.00
2022-08-30T15:38:48.220Z,42.60
2022-08-30T15:41:17.385Z,42.10
2022-08-30T15:43:45.754Z,43.30
2022-08-30T15:46:20.448Z,41.50
2022-08-30T15:48:48.483Z,41.10
2022-08-30T15:51:17.591Z,41.20
2022-08-30T15:53:46.210Z,40.90
2022-08-30T15:56:14.737Z,42.00
2022-08-30T15:58:44.682Z,41.10
2022-08-30T16:01:13.705Z,41.50
2022-08-30T16:03:42.129Z,41.40
2022-08-30T16:06:15.809Z,41.40
2022-08-30T16:08:44.510Z,42.50
2022-08-30T16:11:16.475Z,42.10
2022-08-30T16:13:50.214Z,42.90
2022-08-30T16:16:20.667Z,41.50
2022-08-30T16:18:53.971Z,41.90
2022-08-30T16:21:24.605Z,42.00
2022-08-30T16:23:54.673Z,41.80
2022-08-30T16:26:22.907Z,41.90
2022-08-30T16:28:52.626Z,41.80
2022-08-30T16:31:21.692Z,41.50
2022-08-30T16:33:52.631Z,41.70
2022-08-30T16:36:21.951Z,41.90
2022-08-30T16:38:53.520Z,43.30
2022-08-30T16:41:24.450Z,41.70
2022-08-30T16:43:54.067Z,42.30
2022-08-30T16:46:27.270Z,41.60
2022-08-30T16:48:57.009Z,41.50
2022-08-30T16:51:28.426Z,43.40
2022-08-30T16:53:57.240Z,41.40
2022-08-30T16:56:27.929Z,41.80
2022-08-30T16:59:01.959Z,41.80
2022-08-30T17:01:31.715Z,41.80
2022-08-30T17:04:00.486Z,41.90
2022-08-30T17:06:28.408Z,41.90
2022-08-30T17:08:57.186Z,41.70
2022-08-30T17:11:25.747Z,41.80
2022-08-30T17:13:53.829Z,42.10
2022-08-30T17:16:27.491Z,42.70
2022-08-30T17:18:56.143Z,42.90
2022-08-30T17:21:27.771Z,42.20
2022-08-30T17:24:01.932Z,42.30
2022-08-30T17:26:31.495Z,43.30
2022-08-30T17:28:59.714Z,42.60
2022-08-30T17:31:30.413Z,42.60
2022-08-30T17:34:03.218Z,42.70
2022-08-30T17:36:32.526Z,40.70
2022-08-30T17:39:00.783Z,43.20
2022-08-30T17:41:28.672Z,43.00
2022-08-30T17:43:56.878Z,43.10
2022-08-30T17:46:25.296Z,43.40
2022-08-30T17:48:57.604Z,43.60
2022-08-30T17:51:30.326Z,44.40
2022-08-30T17:53:58.228Z,43.90
2022-08-30T17:56:35.348Z,43.90
2022-08-30T17:59:06.021Z,44.20
2022-08-30T18:01:34.281Z,43.90
2022-08-30T18:04:06.325Z,45.50
2022-08-30T18:06:34.524Z,43.90
2022-08-30T18:09:02.683Z,44.30
2022-08-30T18:11:30.873Z,44.30
2022-08-30T18:13:58.840Z,44.50
2022-08-30T18:16:26.879Z,44.60
2022-08-30T18:18:57.332Z,44.90
2022-08-30T18:21:28.381Z,44.80
2022-08-30T18:23:56.435Z,47.70
2022-08-30T18:26:25.419Z,44.80
2022-08-30T18:28:53.331Z,45.40
2022-08-30T18:31:21.360Z,45.20
2022-08-30T18:33:49.221Z,45.20
2022-08-30T18:36:18.464Z,47.00
2022-08-30T18:38:47.857Z,45.80
2022-08-30T18:41:15.834Z,45.80
2022-08-30T18:43:44.775Z,46.00
2022-08-30T18:46:15.767Z,48.00
2022-08-30T18:48:46.231Z,46.80
2022-08-30T18:51:17.527Z,46.30
2022-08-30T18:53:48.227Z,46.40
2022-08-30T18:56:17.314Z,46.20
2022-08-30T18:58:45.806Z,48.30
2022-08-30T19:01:13.865Z,46.80
2022-08-30T19:03:42.672Z,47.10
2022-08-30T19:06:13.408Z,47.20
2022-08-30T19:08:42.289Z,46.80
2022-08-30T19:11:14.952Z,47.10
2022-08-30T19:13:42.737Z,48.00
2022-08-30T19:16:12.117Z,48.30
2022-08-30T19:18:41.156Z,47.40
2022-08-30T19:21:09.147Z,47.40
2022-08-30T19:23:41.937Z,47.30
2022-08-30T19:28:59.192Z,47.70
2022-08-30T19:31:30.081Z,47.80
2022-08-30T19:33:59.654Z,47.80
2022-08-30T19:36:28.778Z,47.90
2022-08-30T19:38:56.691Z,48.10
2022-08-30T19:41:24.751Z,49.30
2022-08-30T19:43:52.677Z,49.60
2022-08-30T19:46:22.435Z,49.10
2022-08-30T19:48:53.173Z,49.50
2022-08-30T19:51:21.059Z,51.10
2022-08-30T19:53:49.706Z,49.50
2022-08-30T19:56:18.552Z,49.90
2022-08-30T19:58:46.440Z,49.90
2022-08-30T20:01:33.692Z,50.00
2022-08-30T20:04:03.791Z,50.20
2022-08-30T20:06:32.429Z,50.60
2022-08-30T20:09:00.740Z,50.90
2022-08-30T20:11:29.629Z,51.20
2022-08-30T20:13:57.751Z,51.50
2022-08-30T20:19:17.047Z,52.80
2022-08-30T20:21:46.422Z,52.50
2022-08-30T20:24:14.512Z,52.60
2022-08-30T20:26:42.667Z,52.90
2022-08-30T20:29:10.679Z,52.90
2022-08-30T20:31:39.919Z,53.00
2022-08-30T20:34:07.764Z,53.10
2022-08-30T20:36:39.398Z,53.30
2022-08-30T20:39:09.738Z,53.50
2022-08-30T20:41:38.406Z,53.50
2022-08-30T20:44:11.829Z,53.60
2022-08-30T20:46:43.184Z,53.90
2022-08-30T20:49:11.675Z,54.00
2022-08-30T20:51:41.602Z,54.20
2022-08-30T20:54:10.008Z,54.10
2022-08-30T20:56:38.249Z,54.70
2022-08-30T21:01:37.919Z,55.90
2022-08-30T21:04:08.020Z,55.90
2022-08-30T21:06:37.728Z,55.90
2022-08-30T21:09:08.192Z,55.70
2022-08-30T21:11:37.049Z,58.50
2022-08-30T21:14:05.643Z,56.10
2022-08-30T21:16:34.289Z,56.30
2022-08-30T21:19:02.746Z,56.80
2022-08-30T21:21:32.711Z,56.50
2022-08-30T21:24:06.540Z,56.70
2022-08-30T21:26:35.916Z,56.80
2022-08-30T21:29:04.035Z,57.10
2022-08-30T21:31:33.860Z,57.20
2022-08-30T21:34:01.838Z,57.20
2022-08-30T21:36:47.313Z,57.30
2022-08-30T21:39:21.166Z,57.80
2022-08-30T21:41:54.375Z,58.20
2022-08-30T21:44:24.520Z,58.40
2022-08-30T21:46:54.564Z,58.30
2022-08-30T21:49:24.424Z,58.20
2022-08-30T21:51:54.668Z,58.40
2022-08-30T21:54:25.835Z,58.50
2022-08-30T21:57:04.857Z,58.50
2022-08-30T21:59:33.171Z,60.20
2022-08-30T22:02:01.212Z,58.60
2022-08-30T22:04:29.460Z,58.70
2022-08-30T22:06:57.427Z,58.90
2022-08-30T22:09:26.256Z,58.90
2022-08-30T22:11:54.958Z,58.90
2022-08-30T22:14:24.346Z,58.90
2022-08-30T22:16:54.336Z,59.20
2022-08-30T22:21:52.107Z,59.20
2022-08-30T22:29:19.560Z,59.50
2022-08-30T22:31:48.797Z,59.50
2022-08-30T22:34:16.802Z,59.60
2022-08-30T22:36:44.594Z,59.60
2022-08-30T22:39:13.250Z,59.60
2022-08-30T22:44:10.511Z,59.70
2022-08-30T22:46:38.869Z,59.80
2022-08-30T22:49:09.766Z,59.90
2022-08-30T22:51:39.188Z,59.80
2022-08-30T22:54:08.711Z,60.00
2022-08-30T22:56:38.521Z,59.90
2022-08-30T22:59:07.626Z,59.80
2022-08-30T23:01:37.978Z,60.00
2022-08-30T23:04:08.585Z,60.00
2022-08-30T23:06:36.879Z,60.00
2022-08-30T23:09:05.774Z,60.10
2022-08-30T23:18:58.698Z,60.60
2022-08-30T23:21:29.999Z,60.60
2022-08-30T23:24:17.095Z,60.60
2022-08-30T23:27:03.399Z,60.60
2022-08-30T23:29:49.196Z,60.50
2022-08-30T23:35:20.632Z,60.50
2022-08-30T23:38:16.587Z,60.70
2022-08-30T23:41:01.978Z,60.50
2022-08-30T23:52:05.296Z,60.70
2022-08-30T23:54:52.316Z,60.70
